createdAt,value
2019-05-26T00:01:50.866Z,4.00
2019-05-26T00:04:22.882Z,3.13
2019-05-26T00:06:55.809Z,3.50
2019-05-26T00:09:30.231Z,3.17
2019-05-26T00:12:01.645Z,3.73
2019-05-26T00:14:34.921Z,2.70
2019-05-26T00:17:07.769Z,3.00
2019-05-26T00:19:41.434Z,3.50
2019-05-26T00:22:14.706Z,3.20
2019-05-26T00:24:50.392Z,2.90
2019-05-26T00:27:22.733Z,2.97
2019-05-26T00:29:58.214Z,2.90
2019-05-26T00:32:31.715Z,2.97
2019-05-26T00:35:04.391Z,3.40
2019-05-26T00:37:48.392Z,3.47
2019-05-26T00:40:12.406Z,2.83
2019-05-26T00:42:43.795Z,3.40
2019-05-26T00:45:18.041Z,3.53
2019-05-26T00:47:49.857Z,3.20
2019-05-26T00:50:23.492Z,3.53
2019-05-26T00:52:56.655Z,3.10
2019-05-26T00:55:28.862Z,3.37
2019-05-26T00:58:00.937Z,3.40
2019-05-26T01:00:41.998Z,3.00
2019-05-26T01:03:14.027Z,3.37
2019-05-26T01:05:45.889Z,2.90
2019-05-26T01:08:17.817Z,3.03
2019-05-26T01:10:49.895Z,3.60
2019-05-26T01:13:22.842Z,2.90
2019-05-26T01:15:58.585Z,3.60
2019-05-26T01:18:32.004Z,2.63
2019-05-26T01:21:04.065Z,3.53
2019-05-26T01:23:37.894Z,2.83
2019-05-26T01:26:10.981Z,3.47
2019-05-26T01:28:45.784Z,3.80
2019-05-26T01:31:19.450Z,3.67
2019-05-26T01:33:53.186Z,4.30
2019-05-26T01:36:26.073Z,4.30
2019-05-26T01:38:59.538Z,4.50
2019-05-26T01:41:32.135Z,4.90
2019-05-26T01:44:07.805Z,5.00
2019-05-26T01:46:41.106Z,6.30
2019-05-26T01:49:15.805Z,6.40
2019-05-26T01:51:48.984Z,6.43
2019-05-26T01:54:20.321Z,5.90
2019-05-26T01:56:53.280Z,5.93
2019-05-26T01:59:27.244Z,6.80
2019-05-26T02:01:59.096Z,6.83
2019-05-26T02:04:32.331Z,6.70
2019-05-26T02:07:04.451Z,6.50
2019-05-26T02:09:37.315Z,7.23
2019-05-26T02:12:11.061Z,6.93
2019-05-26T02:14:43.394Z,7.97
2019-05-26T02:17:17.257Z,7.50
2019-05-26T02:19:49.191Z,7.27
2019-05-26T02:22:20.488Z,6.50
2019-05-26T02:24:52.266Z,6.90
2019-05-26T02:27:26.195Z,6.57
2019-05-26T02:29:58.752Z,6.13
2019-05-26T02:32:32.384Z,6.30
2019-05-26T02:35:09.086Z,7.50
2019-05-26T02:37:41.341Z,7.57
2019-05-26T02:40:15.111Z,6.97
2019-05-26T02:42:47.569Z,6.60
2019-05-26T02:45:21.027Z,7.47
2019-05-26T02:47:53.483Z,7.73
2019-05-26T02:50:28.000Z,7.53
2019-05-26T02:53:02.573Z,7.70
2019-05-26T02:55:35.830Z,7.33
2019-05-26T02:58:11.160Z,8.40
2019-05-26T03:00:46.910Z,7.83
2019-05-26T03:03:19.489Z,8.80
2019-05-26T03:05:51.679Z,7.60
2019-05-26T03:08:25.686Z,8.07
2019-05-26T03:11:01.651Z,8.20
2019-05-26T03:13:35.845Z,7.83
2019-05-26T03:16:09.076Z,9.23
2019-05-26T03:18:43.057Z,8.03
2019-05-26T03:21:16.829Z,8.07
2019-05-26T03:23:51.396Z,8.10
2019-05-26T03:26:26.722Z,8.87
2019-05-26T03:28:59.575Z,8.33
2019-05-26T03:31:32.623Z,8.43
2019-05-26T03:34:04.231Z,8.47
2019-05-26T03:36:35.574Z,8.40
2019-05-26T03:39:07.995Z,9.10
2019-05-26T03:41:41.670Z,8.83
2019-05-26T03:44:15.108Z,9.03
2019-05-26T03:46:47.793Z,9.23
2019-05-26T03:49:20.039Z,8.70
2019-05-26T03:51:57.820Z,9.30
2019-05-26T03:54:30.452Z,9.00
2019-05-26T03:57:05.346Z,8.20
2019-05-26T03:59:37.836Z,8.47
2019-05-26T04:02:11.673Z,7.60
2019-05-26T04:04:44.952Z,8.70
2019-05-26T04:07:17.652Z,6.70
2019-05-26T04:10:03.820Z,7.37
2019-05-26T04:12:25.867Z,7.50
2019-05-26T04:14:57.360Z,7.40
2019-05-26T04:17:28.762Z,7.83
2019-05-26T04:20:01.791Z,7.50
2019-05-26T04:22:34.896Z,7.50
2019-05-26T04:25:07.076Z,7.90
2019-05-26T04:27:40.894Z,8.20
2019-05-26T04:30:13.240Z,7.73
2019-05-26T04:32:46.962Z,8.27
2019-05-26T04:35:20.033Z,8.53
2019-05-26T04:37:52.927Z,8.47
2019-05-26T04:40:27.812Z,8.90
2019-05-26T04:43:01.859Z,9.00
2019-05-26T04:45:35.099Z,8.53
2019-05-26T04:48:07.884Z,8.70
2019-05-26T04:50:43.901Z,8.23
2019-05-26T04:53:17.182Z,7.13
2019-05-26T04:55:49.919Z,8.20
2019-05-26T04:58:26.895Z,7.60
2019-05-26T05:00:59.021Z,7.40
2019-05-26T05:03:32.003Z,7.13
2019-05-26T05:06:05.619Z,7.03
2019-05-26T05:08:38.222Z,7.57
2019-05-26T05:11:10.202Z,7.50
2019-05-26T05:13:45.441Z,7.40
2019-05-26T05:16:17.151Z,7.80
2019-05-26T05:18:51.261Z,8.37
2019-05-26T05:21:23.058Z,8.93
2019-05-26T05:23:55.029Z,9.27
2019-05-26T05:26:30.774Z,9.77
2019-05-26T05:29:03.166Z,9.27
2019-05-26T05:31:38.656Z,8.57
2019-05-26T05:34:11.210Z,10.00
2019-05-26T05:36:43.287Z,8.93
2019-05-26T05:39:15.139Z,9.60
2019-05-26T05:41:48.868Z,8.90
2019-05-26T05:44:20.473Z,9.60
2019-05-26T05:46:53.392Z,9.10
2019-05-26T05:49:27.317Z,8.77
2019-05-26T05:51:59.416Z,9.63
2019-05-26T05:54:32.527Z,9.07
2019-05-26T05:57:06.309Z,9.00
2019-05-26T05:59:38.305Z,9.70
2019-05-26T06:02:11.203Z,10.00
2019-05-26T06:04:44.370Z,10.23
2019-05-26T06:07:16.868Z,9.40
2019-05-26T06:09:49.241Z,10.20
2019-05-26T06:12:20.827Z,9.73
2019-05-26T06:14:52.768Z,9.50
2019-05-26T06:17:26.274Z,9.93
2019-05-26T06:19:58.393Z,10.40
2019-05-26T06:22:32.449Z,11.17
2019-05-26T06:25:05.947Z,11.33
2019-05-26T06:27:38.395Z,8.83
2019-05-26T06:30:11.776Z,10.20
2019-05-26T06:32:45.427Z,10.47
2019-05-26T06:35:17.642Z,11.53
2019-05-26T06:37:50.799Z,11.73
2019-05-26T06:40:23.748Z,13.33
2019-05-26T06:42:56.725Z,14.17
2019-05-26T06:45:29.452Z,16.40
2019-05-26T06:48:05.086Z,15.30
2019-05-26T06:50:38.756Z,16.33
2019-05-26T06:53:13.314Z,16.53
2019-05-26T06:55:47.714Z,16.17
2019-05-26T06:58:21.640Z,15.80
2019-05-26T07:00:53.771Z,14.77
2019-05-26T07:03:26.597Z,16.97
2019-05-26T07:05:57.942Z,15.70
2019-05-26T07:08:29.781Z,17.40
2019-05-26T07:11:01.138Z,15.90
2019-05-26T07:13:32.640Z,16.33
2019-05-26T07:16:05.912Z,17.43
2019-05-26T07:18:38.728Z,17.13
2019-05-26T07:21:11.955Z,17.07
2019-05-26T07:23:44.765Z,18.57
2019-05-26T07:26:17.647Z,16.90
2019-05-26T07:28:50.788Z,16.50
2019-05-26T07:31:26.038Z,16.00
2019-05-26T07:34:01.233Z,14.03
2019-05-26T07:36:32.919Z,15.10
2019-05-26T07:39:08.372Z,15.07
2019-05-26T07:41:42.024Z,15.20
2019-05-26T07:44:13.806Z,15.13
2019-05-26T07:46:46.090Z,15.47
2019-05-26T07:49:17.809Z,15.10
2019-05-26T07:51:50.964Z,15.63
2019-05-26T07:54:25.842Z,13.70
2019-05-26T07:56:56.880Z,14.90
2019-05-26T07:59:29.579Z,15.03
2019-05-26T08:02:05.318Z,15.43
2019-05-26T08:04:37.066Z,15.03
2019-05-26T08:07:10.430Z,14.83
2019-05-26T08:09:44.312Z,15.57
2019-05-26T08:12:26.903Z,14.63
2019-05-26T08:14:56.178Z,15.10
2019-05-26T08:17:31.563Z,15.50
2019-05-26T08:20:08.317Z,14.47
2019-05-26T08:22:42.041Z,14.83
2019-05-26T08:25:15.130Z,14.70
2019-05-26T08:27:48.391Z,14.40
2019-05-26T08:30:22.245Z,14.93
2019-05-26T08:32:54.200Z,14.03
2019-05-26T08:35:28.831Z,14.13
2019-05-26T08:38:03.023Z,14.60
2019-05-26T08:40:36.029Z,15.13
2019-05-26T08:43:10.015Z,12.07
2019-05-26T08:45:42.118Z,13.40
2019-05-26T08:48:15.274Z,12.80
2019-05-26T08:50:50.266Z,15.13
2019-05-26T08:53:26.289Z,14.80
2019-05-26T08:56:00.081Z,12.27
2019-05-26T08:58:32.133Z,12.10
2019-05-26T09:01:06.156Z,13.33
2019-05-26T09:03:41.045Z,13.53
2019-05-26T09:06:15.862Z,12.50
2019-05-26T09:08:50.365Z,12.57
2019-05-26T09:11:24.653Z,13.10
2019-05-26T09:14:01.969Z,13.00
2019-05-26T09:16:37.010Z,14.27
2019-05-26T09:19:12.653Z,11.00
2019-05-26T09:21:48.153Z,12.60
2019-05-26T09:24:20.503Z,12.07
2019-05-26T09:26:52.400Z,12.50
2019-05-26T09:29:26.326Z,12.50
2019-05-26T09:32:04.476Z,11.97
2019-05-26T09:34:46.492Z,10.87
2019-05-26T09:37:24.204Z,12.20
2019-05-26T09:40:01.818Z,12.20
2019-05-26T09:42:36.901Z,13.07
2019-05-26T09:45:09.355Z,11.47
2019-05-26T09:47:43.117Z,14.73
2019-05-26T09:50:18.038Z,10.20
2019-05-26T09:52:50.536Z,10.83
2019-05-26T09:55:23.751Z,10.10
2019-05-26T09:57:56.359Z,10.40
2019-05-26T10:00:32.662Z,10.37
2019-05-26T10:03:06.141Z,9.40
2019-05-26T10:05:40.326Z,9.00
2019-05-26T10:08:11.727Z,9.87
2019-05-26T10:10:44.582Z,7.90
2019-05-26T10:13:30.817Z,9.73
2019-05-26T10:15:53.246Z,8.50
2019-05-26T10:18:26.325Z,7.77
2019-05-26T10:20:59.776Z,9.33
2019-05-26T10:23:36.635Z,8.83
2019-05-26T10:26:13.217Z,7.63
2019-05-26T10:28:44.622Z,9.23
2019-05-26T10:31:17.865Z,7.70
2019-05-26T10:33:49.571Z,8.23
2019-05-26T10:36:20.988Z,7.90
2019-05-26T10:38:58.887Z,6.90
2019-05-26T10:41:32.574Z,7.50
2019-05-26T10:44:05.959Z,6.83
2019-05-26T10:46:38.667Z,7.07
2019-05-26T10:49:11.854Z,7.03
2019-05-26T10:51:44.983Z,6.83
2019-05-26T10:54:18.298Z,6.60
2019-05-26T10:56:54.061Z,7.60
2019-05-26T10:59:27.820Z,7.00
2019-05-26T11:01:59.807Z,5.83
2019-05-26T11:04:32.830Z,6.10
2019-05-26T11:07:05.962Z,6.60
2019-05-26T11:09:37.917Z,6.50
2019-05-26T11:12:12.220Z,5.17
2019-05-26T11:14:43.871Z,6.60
2019-05-26T11:17:22.047Z,5.87
2019-05-26T11:19:53.970Z,5.70
2019-05-26T11:22:26.893Z,5.60
2019-05-26T11:25:10.237Z,5.50
2019-05-26T11:27:45.086Z,6.70
2019-05-26T11:30:21.389Z,5.67
2019-05-26T11:32:59.440Z,5.93
2019-05-26T11:35:36.847Z,6.30
2019-05-26T11:38:11.133Z,7.07
2019-05-26T11:40:45.038Z,5.77
2019-05-26T11:43:20.863Z,5.43
2019-05-26T11:45:58.471Z,5.90
2019-05-26T11:48:32.608Z,5.20
2019-05-26T11:51:04.092Z,5.67
2019-05-26T11:53:39.293Z,5.40
2019-05-26T11:56:14.551Z,5.07
2019-05-26T11:58:49.698Z,6.07
2019-05-26T12:01:25.037Z,5.40
2019-05-26T12:03:56.964Z,5.77
2019-05-26T12:06:30.159Z,5.80
2019-05-26T12:09:03.150Z,5.17
2019-05-26T12:11:36.133Z,5.17
2019-05-26T12:14:09.815Z,4.70
2019-05-26T12:16:42.514Z,4.73
2019-05-26T12:19:16.250Z,4.50
2019-05-26T12:21:48.430Z,4.40
2019-05-26T12:24:21.058Z,4.47
2019-05-26T12:26:55.174Z,4.87
2019-05-26T12:29:30.836Z,4.30
2019-05-26T12:32:04.759Z,4.40
2019-05-26T12:34:36.606Z,4.13
2019-05-26T12:37:09.601Z,4.40
2019-05-26T12:39:43.476Z,4.87
2019-05-26T12:42:17.285Z,4.60
2019-05-26T12:44:50.320Z,4.70
2019-05-26T12:47:25.844Z,4.43
2019-05-26T12:49:59.315Z,3.53
2019-05-26T12:52:35.347Z,4.47
2019-05-26T12:55:09.905Z,4.17
2019-05-26T12:57:42.450Z,3.83
2019-05-26T13:00:20.664Z,3.70
2019-05-26T13:02:55.278Z,3.80
2019-05-26T13:05:32.117Z,3.77
2019-05-26T13:08:04.551Z,4.20
2019-05-26T13:10:38.807Z,3.70
2019-05-26T13:13:22.438Z,3.57
2019-05-26T13:19:16.532Z,3.57
2019-05-26T13:22:01.179Z,3.20
2019-05-26T13:24:46.349Z,3.40
2019-05-26T13:28:04.070Z,3.23
2019-05-26T13:31:01.416Z,2.97
2019-05-26T13:34:01.584Z,3.50
2019-05-26T13:36:46.692Z,3.83
2019-05-26T13:39:33.435Z,3.20
2019-05-26T13:42:09.376Z,2.93
2019-05-26T13:44:48.826Z,3.70
2019-05-26T13:47:33.148Z,4.10
2019-05-26T13:50:21.234Z,2.93
2019-05-26T13:53:14.131Z,3.50
2019-05-26T13:55:49.503Z,4.03
2019-05-26T13:58:26.949Z,3.57
2019-05-26T14:01:16.497Z,2.93
2019-05-26T14:04:07.645Z,3.20
2019-05-26T14:06:41.664Z,2.80
2019-05-26T14:09:27.496Z,3.20
2019-05-26T14:12:02.126Z,3.00
2019-05-26T14:14:38.371Z,2.70
2019-05-26T14:17:24.960Z,3.77
2019-05-26T14:20:13.063Z,3.33
2019-05-26T14:23:08.566Z,3.50
2019-05-26T14:25:45.483Z,3.33
2019-05-26T14:28:33.405Z,2.90
2019-05-26T14:31:15.700Z,3.10
2019-05-26T14:34:00.311Z,5.43
2019-05-26T14:39:41.603Z,2.60
2019-05-26T14:42:16.120Z,7.60
2019-05-26T14:44:55.383Z,2.27
2019-05-26T14:47:35.767Z,2.53
2019-05-26T14:50:10.703Z,2.30
